sensor_id;sensor_type;location;lat;lon;timestamp;pressure;altitude;pressure_sealevel;temperature;humidity
46347;BME280;32057;47.830;19.046;2023-01-26T00:01:22;101035.56;;;1.84;100.00
46347;BME280;32057;47.830;19.046;2023-01-26T00:03:48;101039.50;;;1.79;100.00
46347;BME280;32057;47.830;19.046;2023-01-26T00:06:15;101030.50;;;1.72;100.00
46347;BME280;32057;47.830;19.046;2023-01-26T00:08:44;101030.63;;;1.74;100.00
46347;BME280;32057;47.830;19.046;2023-01-26T00:11:10;101027.66;;;1.81;100.00
46347;BME280;32057;47.830;19.046;2023-01-26T00:13:36;101018.59;;;1.86;100.00
46347;BME280;32057;47.830;19.046;2023-01-26T00:16:02;101011.66;;;1.85;100.00
46347;BME280;32057;47.830;19.046;2023-01-26T00:18:28;101018.19;;;1.80;100.00
46347;BME280;32057;47.830;19.046;2023-01-26T00:21:00;101025.78;;;1.78;100.00
46347;BME280;32057;47.830;19.046;2023-01-26T00:23:26;101025.97;;;1.82;100.00
46347;BME280;32057;47.830;19.046;2023-01-26T00:25:52;101021.06;;;1.85;100.00
46347;BME280;32057;47.830;19.046;2023-01-26T00:28:18;101016.63;;;1.82;100.00
46347;BME280;32057;47.830;19.046;2023-01-26T00:30:43;101018.59;;;1.86;100.00
46347;BME280;32057;47.830;19.046;2023-01-26T00:33:09;101013.66;;;1.89;100.00
46347;BME280;32057;47.830;19.046;2023-01-26T00:35:34;101011.78;;;1.87;100.00
46347;BME280;32057;47.830;19.046;2023-01-26T00:37:59;101022.63;;;1.83;100.00
46347;BME280;32057;47.830;19.046;2023-01-26T00:40:24;101012.16;;;1.79;100.00
46347;BME280;32057;47.830;19.046;2023-01-26T00:42:50;101013.25;;;1.83;100.00
46347;BME280;32057;47.830;19.046;2023-01-26T00:45:18;101013.44;;;1.73;100.00
46347;BME280;32057;47.830;19.046;2023-01-26T00:47:43;101003.47;;;1.77;100.00
46347;BME280;32057;47.830;19.046;2023-01-26T00:50:09;101006.34;;;1.82;100.00
46347;BME280;32057;47.830;19.046;2023-01-26T00:52:34;101002.09;;;1.83;100.00
46347;BME280;32057;47.830;19.046;2023-01-26T00:54:59;101005.66;;;1.85;100.00
46347;BME280;32057;47.830;19.046;2023-01-26T00:57:25;101008.13;;;1.83;100.00
46347;BME280;32057;47.830;19.046;2023-01-26T00:59:50;101006.44;;;1.84;100.00
46347;BME280;32057;47.830;19.046;2023-01-26T01:02:15;100999.53;;;1.83;100.00
46347;BME280;32057;47.830;19.046;2023-01-26T01:04:40;101003.88;;;1.84;100.00
46347;BME280;32057;47.830;19.046;2023-01-26T01:07:06;100994.41;;;1.83;100.00
46347;BME280;32057;47.830;19.046;2023-01-26T01:09:31;100999.31;;;1.79;100.00
46347;BME280;32057;47.830;19.046;2023-01-26T01:11:56;101000.59;;;1.73;100.00
46347;BME280;32057;47.830;19.046;2023-01-26T01:14:22;100994.59;;;1.72;100.00
46347;BME280;32057;47.830;19.046;2023-01-26T01:16:47;100992.59;;;1.68;100.00
46347;BME280;32057;47.830;19.046;2023-01-26T01:19:13;100993.50;;;1.69;100.00
46347;BME280;32057;47.830;19.046;2023-01-26T01:21:39;100984.31;;;1.72;100.00
46347;BME280;32057;47.830;19.046;2023-01-26T01:24:04;100986.31;;;1.76;100.00
46347;BME280;32057;47.830;19.046;2023-01-26T01:26:30;100977.81;;;1.77;100.00
46347;BME280;32057;47.830;19.046;2023-01-26T01:28:55;100981.34;;;1.79;100.00
46347;BME280;32057;47.830;19.046;2023-01-26T01:31:21;100982.06;;;1.77;100.00
46347;BME280;32057;47.830;19.046;2023-01-26T01:33:47;100976.81;;;1.75;100.00
46347;BME280;32057;47.830;19.046;2023-01-26T01:36:13;100981.66;;;1.71;100.00
46347;BME280;32057;47.830;19.046;2023-01-26T01:38:39;100973.84;;;1.69;100.00
46347;BME280;32057;47.830;19.046;2023-01-26T01:41:04;100971.88;;;1.65;100.00
46347;BME280;32057;47.830;19.046;2023-01-26T01:43:30;100968.53;;;1.66;100.00
46347;BME280;32057;47.830;19.046;2023-01-26T01:45:55;100963.59;;;1.69;100.00
46347;BME280;32057;47.830;19.046;2023-01-26T01:48:25;100958.66;;;1.72;100.00
46347;BME280;32057;47.830;19.046;2023-01-26T01:50:54;100964.91;;;1.76;100.00
46347;BME280;32057;47.830;19.046;2023-01-26T01:53:21;100956.41;;;1.77;100.00
46347;BME280;32057;47.830;19.046;2023-01-26T01:55:52;100959.56;;;1.73;100.00
46347;BME280;32057;47.830;19.046;2023-01-26T01:58:19;100954.91;;;1.67;100.00
46347;BME280;32057;47.830;19.046;2023-01-26T02:00:45;100949.59;;;1.64;100.00
46347;BME280;32057;47.830;19.046;2023-01-26T02:03:10;100949.38;;;1.61;100.00
46347;BME280;32057;47.830;19.046;2023-01-26T02:05:53;100949.19;;;1.58;100.00
46347;BME280;32057;47.830;19.046;2023-01-26T02:08:20;100938.13;;;1.59;100.00
46347;BME280;32057;47.830;19.046;2023-01-26T02:10:46;100942.25;;;1.57;100.00
46347;BME280;32057;47.830;19.046;2023-01-26T02:13:14;100938.91;;;1.58;100.00
46347;BME280;32057;47.830;19.046;2023-01-26T02:15:40;100936.25;;;1.56;100.00
46347;BME280;32057;47.830;19.046;2023-01-26T02:18:05;100930.25;;;1.56;100.00
46347;BME280;32057;47.830;19.046;2023-01-26T02:20:49;100928.44;;;1.55;100.00
46347;BME280;32057;47.830;19.046;2023-01-26T02:26:42;100915.25;;;1.62;100.00
46347;BME280;32057;47.830;19.046;2023-01-26T02:28:48;100916.13;;;1.63;100.00
46347;BME280;32057;47.830;19.046;2023-01-26T02:31:14;100919.47;;;1.62;100.00
46347;BME280;32057;47.830;19.046;2023-01-26T02:33:40;100916.81;;;1.60;100.00
46347;BME280;32057;47.830;19.046;2023-01-26T02:36:06;100907.44;;;1.61;100.00
46347;BME280;32057;47.830;19.046;2023-01-26T02:38:36;100908.31;;;1.61;100.00
46347;BME280;32057;47.830;19.046;2023-01-26T02:41:05;100901.84;;;1.66;100.00
46347;BME280;32057;47.830;19.046;2023-01-26T02:43:30;100901.13;;;1.69;100.00
46347;BME280;32057;47.830;19.046;2023-01-26T02:45:56;100890.00;;;1.68;100.00
46347;BME280;32057;47.830;19.046;2023-01-26T02:48:21;100891.19;;;1.60;100.00
46347;BME280;32057;47.830;19.046;2023-01-26T02:51:05;100894.59;;;1.47;100.00
46347;BME280;32057;47.830;19.046;2023-01-26T02:53:30;100886.78;;;1.46;100.00
46347;BME280;32057;47.830;19.046;2023-01-26T02:55:56;100877.94;;;1.54;100.00
46347;BME280;32057;47.830;19.046;2023-01-26T02:58:21;100879.34;;;1.62;100.00
46347;BME280;32057;47.830;19.046;2023-01-26T03:00:46;100880.22;;;1.63;100.00
46347;BME280;32057;47.830;19.046;2023-01-26T03:03:22;100875.97;;;1.63;100.00
46347;BME280;32057;47.830;19.046;2023-01-26T03:05:48;100873.69;;;1.68;100.00
46347;BME280;32057;47.830;19.046;2023-01-26T03:08:13;100871.81;;;1.65;100.00
46347;BME280;32057;47.830;19.046;2023-01-26T03:10:39;100869.84;;;1.61;100.00
46347;BME280;32057;47.830;19.046;2023-01-26T03:13:04;100863.56;;;1.56;100.00
46347;BME280;32057;47.830;19.046;2023-01-26T03:15:29;100857.22;;;1.51;100.00
46347;BME280;32057;47.830;19.046;2023-01-26T03:18:16;100863.56;;;1.56;100.00
46347;BME280;32057;47.830;19.046;2023-01-26T03:21:01;100862.16;;;1.61;100.00
46347;BME280;32057;47.830;19.046;2023-01-26T03:23:46;100858.81;;;1.62;100.00
46347;BME280;32057;47.830;19.046;2023-01-26T03:26:29;100860.69;;;1.65;100.00
46347;BME280;32057;47.830;19.046;2023-01-26T03:29:13;100864.22;;;1.67;100.00
46347;BME280;32057;47.830;19.046;2023-01-26T03:31:38;100861.56;;;1.65;100.00
46347;BME280;32057;47.830;19.046;2023-01-26T03:34:04;100854.34;;;1.59;100.00
46347;BME280;32057;47.830;19.046;2023-01-26T03:36:29;100850.41;;;1.65;100.00
46347;BME280;32057;47.830;19.046;2023-01-26T03:38:54;100852.19;;;1.66;100.00
46347;BME280;32057;47.830;19.046;2023-01-26T03:41:20;100846.88;;;1.63;100.00
46347;BME280;32057;47.830;19.046;2023-01-26T03:44:04;100850.13;;;1.60;100.00
46347;BME280;32057;47.830;19.046;2023-01-26T03:46:47;100855.44;;;1.63;100.00
46347;BME280;32057;47.830;19.046;2023-01-26T03:49:31;100851.88;;;1.61;100.00
46347;BME280;32057;47.830;19.046;2023-01-26T03:52:15;100847.19;;;1.54;100.00
46347;BME280;32057;47.830;19.046;2023-01-26T03:54:59;100844.59;;;1.54;100.00
46347;BME280;32057;47.830;19.046;2023-01-26T03:57:43;100834.34;;;1.54;100.00
46347;BME280;32057;47.830;19.046;2023-01-26T04:00:09;100836.22;;;1.56;100.00
46347;BME280;32057;47.830;19.046;2023-01-26T04:02:34;100834.91;;;1.63;100.00
46347;BME280;32057;47.830;19.046;2023-01-26T04:05:18;100837.97;;;1.57;100.00
46347;BME280;32057;47.830;19.046;2023-01-26T04:08:02;100827.81;;;1.59;100.00
46347;BME280;32057;47.830;19.046;2023-01-26T04:10:47;100830.38;;;1.59;100.00
46347;BME280;32057;47.830;19.046;2023-01-26T04:13:12;100821.22;;;1.63;100.00
46347;BME280;32057;47.830;19.046;2023-01-26T04:15:56;100822.50;;;1.56;100.00
46347;BME280;32057;47.830;19.046;2023-01-26T04:18:40;100827.44;;;1.53;100.00
46347;BME280;32057;47.830;19.046;2023-01-26T04:21:23;100823.59;;;1.46;100.00
46347;BME280;32057;47.830;19.046;2023-01-26T04:23:57;100820.13;;;1.46;100.00
46347;BME280;32057;47.830;19.046;2023-01-26T04:26:23;100822.00;;;1.48;100.00
46347;BME280;32057;47.830;19.046;2023-01-26T04:28:49;100813.50;;;1.49;100.00
46347;BME280;32057;47.830;19.046;2023-01-26T04:31:14;100809.38;;;1.51;100.00
46347;BME280;32057;47.830;19.046;2023-01-26T04:33:41;100812.25;;;1.56;100.00
46347;BME280;32057;47.830;19.046;2023-01-26T04:36:07;100813.72;;;1.52;100.00
46347;BME280;32057;47.830;19.046;2023-01-26T04:38:32;100807.88;;;1.42;100.00
46347;BME280;32057;47.830;19.046;2023-01-26T04:40:58;100807.13;;;1.43;100.00
46347;BME280;32057;47.830;19.046;2023-01-26T04:43:23;100807.50;;;1.49;100.00
46347;BME280;32057;47.830;19.046;2023-01-26T04:46:02;100809.25;;;1.50;100.00
46347;BME280;32057;47.830;19.046;2023-01-26T04:48:28;100807.50;;;1.49;100.00
46347;BME280;32057;47.830;19.046;2023-01-26T04:50:54;100808.09;;;1.45;100.00
46347;BME280;32057;47.830;19.046;2023-01-26T04:53:19;100804.56;;;1.43;100.00
46347;BME280;32057;47.830;19.046;2023-01-26T04:55:45;100805.63;;;1.46;100.00
46347;BME280;32057;47.830;19.046;2023-01-26T04:58:10;100800.03;;;1.52;100.00
46347;BME280;32057;47.830;19.046;2023-01-26T05:00:36;100804.25;;;1.51;100.00
46347;BME280;32057;47.830;19.046;2023-01-26T05:03:01;100800.59;;;1.48;100.00
46347;BME280;32057;47.830;19.046;2023-01-26T05:05:26;100796.38;;;1.48;100.00
46347;BME280;32057;47.830;19.046;2023-01-26T05:07:52;100802.47;;;1.50;100.00
46347;BME280;32057;47.830;19.046;2023-01-26T05:10:17;100800.59;;;1.48;100.00
46347;BME280;32057;47.830;19.046;2023-01-26T05:12:42;100796.25;;;1.47;100.00
46347;BME280;32057;47.830;19.046;2023-01-26T05:15:08;100795.00;;;1.40;100.00
46347;BME280;32057;47.830;19.046;2023-01-26T05:17:33;100797.72;;;1.30;100.00
46347;BME280;32057;47.830;19.046;2023-01-26T05:20:00;100794.78;;;1.37;100.00
46347;BME280;32057;47.830;19.046;2023-01-26T05:22:25;100795.59;;;1.36;100.00
46347;BME280;32057;47.830;19.046;2023-01-26T05:24:50;100801.78;;;1.39;100.00
46347;BME280;32057;47.830;19.046;2023-01-26T05:27:15;100803.47;;;1.39;100.00
46347;BME280;32057;47.830;19.046;2023-01-26T05:29:48;100801.19;;;1.30;100.00
46347;BME280;32057;47.830;19.046;2023-01-26T05:32:13;100805.34;;;1.28;100.00
46347;BME280;32057;47.830;19.046;2023-01-26T05:34:39;100797.06;;;1.32;100.00
46347;BME280;32057;47.830;19.046;2023-01-26T05:37:04;100804.56;;;1.43;100.00
46347;BME280;32057;47.830;19.046;2023-01-26T05:39:29;100802.16;;;1.46;100.00
46347;BME280;32057;47.830;19.046;2023-01-26T05:41:54;100810.94;;;1.49;100.00
46347;BME280;32057;47.830;19.046;2023-01-26T05:44:21;100805.06;;;1.50;100.00
46347;BME280;32057;47.830;19.046;2023-01-26T05:46:46;100797.47;;;1.52;100.00
46347;BME280;32057;47.830;19.046;2023-01-26T05:49:11;100804.94;;;1.49;100.00
46347;BME280;32057;47.830;19.046;2023-01-26T05:51:36;100807.63;;;1.50;100.00
46347;BME280;32057;47.830;19.046;2023-01-26T05:54:02;100804.72;;;1.46;100.00
46347;BME280;32057;47.830;19.046;2023-01-26T05:56:27;100805.03;;;1.37;100.00
46347;BME280;32057;47.830;19.046;2023-01-26T05:58:52;100811.56;;;1.32;100.00
46347;BME280;32057;47.830;19.046;2023-01-26T06:01:18;100807.31;;;1.32;100.00
46347;BME280;32057;47.830;19.046;2023-01-26T06:03:43;100809.28;;;1.36;100.00
46347;BME280;32057;47.830;19.046;2023-01-26T06:06:08;100812.63;;;1.35;100.00
46347;BME280;32057;47.830;19.046;2023-01-26T06:08:33;100811.63;;;1.33;100.00
46347;BME280;32057;47.830;19.046;2023-01-26T06:11:00;100807.50;;;1.35;100.00
46347;BME280;32057;47.830;19.046;2023-01-26T06:13:25;100811.03;;;1.37;100.00
46347;BME280;32057;47.830;19.046;2023-01-26T06:15:50;100809.28;;;1.36;100.00
46347;BME280;32057;47.830;19.046;2023-01-26T06:18:16;100805.72;;;1.34;100.00
46347;BME280;32057;47.830;19.046;2023-01-26T06:20:41;100809.78;;;1.31;100.00
46347;BME280;32057;47.830;19.046;2023-01-26T06:23:06;100811.47;;;1.30;100.00
46347;BME280;32057;47.830;19.046;2023-01-26T06:25:36;100803.88;;;1.32;100.00
46347;BME280;32057;47.830;19.046;2023-01-26T06:28:02;100799.81;;;1.35;100.00
46347;BME280;32057;47.830;19.046;2023-01-26T06:30:28;100803.16;;;1.34;100.00
46347;BME280;32057;47.830;19.046;2023-01-26T06:32:53;100794.38;;;1.31;100.00
46347;BME280;32057;47.830;19.046;2023-01-26T06:35:18;100798.63;;;1.30;100.00
46347;BME280;32057;47.830;19.046;2023-01-26T06:37:43;100794.78;;;1.37;100.00
46347;BME280;32057;47.830;19.046;2023-01-26T06:40:11;100799.22;;;1.39;100.00
46347;BME280;32057;47.830;19.046;2023-01-26T06:42:37;100799.13;;;1.38;100.00
46347;BME280;32057;47.830;19.046;2023-01-26T06:45:02;100799.03;;;1.36;100.00
46347;BME280;32057;47.830;19.046;2023-01-26T06:47:27;100788.56;;;1.33;100.00
46347;BME280;32057;47.830;19.046;2023-01-26T06:49:52;100794.88;;;1.38;100.00
46347;BME280;32057;47.830;19.046;2023-01-26T06:52:20;100787.19;;;1.38;100.00
46347;BME280;32057;47.830;19.046;2023-01-26T06:54:49;100792.31;;;1.38;100.00
46347;BME280;32057;47.830;19.046;2023-01-26T06:57:15;100785.41;;;1.37;100.00
46347;BME280;32057;47.830;19.046;2023-01-26T06:59:40;100791.44;;;1.38;100.00
46347;BME280;32057;47.830;19.046;2023-01-26T07:02:05;100790.53;;;1.37;100.00
46347;BME280;32057;47.830;19.046;2023-01-26T07:04:34;100790.53;;;1.37;100.00
46347;BME280;32057;47.830;19.046;2023-01-26T07:06:59;100788.94;;;1.39;100.00
46347;BME280;32057;47.830;19.046;2023-01-26T07:09:24;100790.91;;;1.44;100.00
46347;BME280;32057;47.830;19.046;2023-01-26T07:11:50;100787.69;;;1.46;100.00
46347;BME280;32057;47.830;19.046;2023-01-26T07:14:15;100780.19;;;1.49;100.00
46347;BME280;32057;47.830;19.046;2023-01-26T07:16:40;100775.16;;;1.51;100.00
46347;BME280;32057;47.830;19.046;2023-01-26T07:19:05;100780.38;;;1.52;100.00
46347;BME280;32057;47.830;19.046;2023-01-26T07:21:31;100784.22;;;1.46;100.00
46347;BME280;32057;47.830;19.046;2023-01-26T07:23:57;100777.22;;;1.43;100.00
46347;BME280;32057;47.830;19.046;2023-01-26T07:26:22;100774.75;;;1.45;100.00
46347;BME280;32057;47.830;19.046;2023-01-26T07:28:47;100772.19;;;1.45;100.00
46347;BME280;32057;47.830;19.046;2023-01-26T07:31:13;100774.66;;;1.43;100.00
46347;BME280;32057;47.830;19.046;2023-01-26T07:33:38;100780.66;;;1.44;100.00
46347;BME280;32057;47.830;19.046;2023-01-26T07:36:04;100778.81;;;1.41;100.00
46347;BME280;32057;47.830;19.046;2023-01-26T07:38:31;100772.78;;;1.41;100.00
46347;BME280;32057;47.830;19.046;2023-01-26T07:40:56;100772.00;;;1.42;100.00
46347;BME280;32057;47.830;19.046;2023-01-26T07:43:22;100778.03;;;1.42;100.00
46347;BME280;32057;47.830;19.046;2023-01-26T07:45:48;100782.47;;;1.45;100.00
46347;BME280;32057;47.830;19.046;2023-01-26T07:48:15;100772.38;;;1.48;100.00
46347;BME280;32057;47.830;19.046;2023-01-26T07:50:40;100777.50;;;1.48;100.00
46347;BME280;32057;47.830;19.046;2023-01-26T07:53:06;100772.38;;;1.48;100.00
46347;BME280;32057;47.830;19.046;2023-01-26T07:55:33;100769.03;;;1.49;100.00
46347;BME280;32057;47.830;19.046;2023-01-26T07:57:59;100776.84;;;1.50;100.00
46347;BME280;32057;47.830;19.046;2023-01-26T08:00:24;100771.81;;;1.52;100.00
46347;BME280;32057;47.830;19.046;2023-01-26T08:02:49;100770.31;;;1.55;100.00
46347;BME280;32057;47.830;19.046;2023-01-26T08:05:15;100762.72;;;1.57;100.00
46347;BME280;32057;47.830;19.046;2023-01-26T08:07:40;100767.94;;;1.58;100.00
46347;BME280;32057;47.830;19.046;2023-01-26T08:10:05;100764.50;;;1.58;100.00
46347;BME280;32057;47.830;19.046;2023-01-26T08:12:33;100766.47;;;1.62;100.00
46347;BME280;32057;47.830;19.046;2023-01-26T08:14:58;100771.78;;;1.65;100.00
46347;BME280;32057;47.830;19.046;2023-01-26T08:17:23;100767.34;;;1.63;100.00
46347;BME280;32057;47.830;19.046;2023-01-26T08:19:49;100764.28;;;1.68;100.00
46347;BME280;32057;47.830;19.046;2023-01-26T08:22:14;100766.03;;;1.69;100.00
46347;BME280;32057;47.830;19.046;2023-01-26T08:24:39;100767.25;;;1.74;100.00
46347;BME280;32057;47.830;19.046;2023-01-26T08:27:04;100769.00;;;1.75;100.00
46347;BME280;32057;47.830;19.046;2023-01-26T08:29:30;100768.13;;;1.75;100.00
46347;BME280;32057;47.830;19.046;2023-01-26T08:31:55;100769.19;;;1.78;100.00
46347;BME280;32057;47.830;19.046;2023-01-26T08:34:20;100767.63;;;1.81;100.00
46347;BME280;32057;47.830;19.046;2023-01-26T08:36:50;100771.16;;;1.83;100.00
46347;BME280;32057;47.830;19.046;2023-01-26T08:39:15;100760.09;;;1.84;100.00
46347;BME280;32057;47.830;19.046;2023-01-26T08:41:41;100759.53;;;1.88;100.00
46347;BME280;32057;47.830;19.046;2023-01-26T08:44:08;100766.63;;;1.92;100.00
46347;BME280;32057;47.830;19.046;2023-01-26T08:46:33;100769.09;;;1.90;100.00
46347;BME280;32057;47.830;19.046;2023-01-26T08:48:58;100766.78;;;1.95;100.00
46347;BME280;32057;47.830;19.046;2023-01-26T08:51:24;100766.78;;;1.95;100.00
46347;BME280;32057;47.830;19.046;2023-01-26T08:53:49;100773.88;;;1.99;100.00
46347;BME280;32057;47.830;19.046;2023-01-26T08:56:15;100776.66;;;2.02;100.00
46347;BME280;32057;47.830;19.046;2023-01-26T08:58:40;100769.94;;;2.04;100.00
46347;BME280;32057;47.830;19.046;2023-01-26T09:01:10;100774.47;;;2.08;100.00
46347;BME280;32057;47.830;19.046;2023-01-26T09:03:36;100772.97;;;2.12;100.00
46347;BME280;32057;47.830;19.046;2023-01-26T09:06:02;100772.78;;;2.09;100.00
46347;BME280;32057;47.830;19.046;2023-01-26T09:08:28;100774.47;;;2.08;100.00
46347;BME280;32057;47.830;19.046;2023-01-26T09:10:54;100772.88;;;2.10;100.00
46347;BME280;32057;47.830;19.046;2023-01-26T09:13:19;100777.41;;;2.14;100.00
46347;BME280;32057;47.830;19.046;2023-01-26T09:15:44;100773.25;;;2.16;100.00
46347;BME280;32057;47.830;19.046;2023-01-26T09:18:10;100771.66;;;2.18;100.00
46347;BME280;32057;47.830;19.046;2023-01-26T09:20:36;100769.50;;;2.11;100.00
46347;BME280;32057;47.830;19.046;2023-01-26T09:23:02;100773.97;;;2.14;100.00
46347;BME280;32057;47.830;19.046;2023-01-26T09:25:27;100769.25;;;2.22;100.00
46347;BME280;32057;47.830;19.046;2023-01-26T09:27:52;100764.44;;;2.26;100.00
46347;BME280;32057;47.830;19.046;2023-01-26T09:30:17;100768.06;;;2.30;100.00
46347;BME280;32057;47.830;19.046;2023-01-26T09:32:43;100760.38;;;2.30;100.00
46347;BME280;32057;47.830;19.046;2023-01-26T09:35:08;100757.00;;;2.31;100.00
46347;BME280;32057;47.830;19.046;2023-01-26T09:37:36;100752.47;;;2.27;100.00
46347;BME280;32057;47.830;19.046;2023-01-26T09:40:01;100756.22;;;2.32;100.00
46347;BME280;32057;47.830;19.046;2023-01-26T09:47:42;100747.09;;;2.37;100.00
46347;BME280;32057;47.830;19.046;2023-01-26T09:50:13;100743.13;;;2.42;100.00
46347;BME280;32057;47.830;19.046;2023-01-26T09:52:47;100737.38;;;2.46;100.00
46347;BME280;32057;47.830;19.046;2023-01-26T09:55:16;100735.94;;;2.51;100.00
46347;BME280;32057;47.830;19.046;2023-01-26T10:00:08;100727.63;;;2.55;100.00
46347;BME280;32057;47.830;19.046;2023-01-26T10:02:46;100720.88;;;2.57;100.00
46347;BME280;32057;47.830;19.046;2023-01-26T10:05:17;100719.28;;;2.59;100.00
46347;BME280;32057;47.830;19.046;2023-01-26T10:07:46;100715.06;;;2.60;100.00
46347;BME280;32057;47.830;19.046;2023-01-26T10:10:18;100716.81;;;2.61;100.00
46347;BME280;32057;47.830;19.046;2023-01-26T10:12:44;100712.56;;;2.62;100.00
46347;BME280;32057;47.830;19.046;2023-01-26T10:17:38;100704.69;;;2.58;100.00
46347;BME280;32057;47.830;19.046;2023-01-26T10:22:43;100699.28;;;2.69;100.00
46347;BME280;32057;47.830;19.046;2023-01-26T10:25:11;100696.28;;;2.76;100.00
46347;BME280;32057;47.830;19.046;2023-01-26T10:27:37;100697.41;;;2.81;100.00
46347;BME280;32057;47.830;19.046;2023-01-26T10:30:02;100691.50;;;2.82;100.00
46347;BME280;32057;47.830;19.046;2023-01-26T10:32:28;100687.22;;;2.83;100.00
46347;BME280;32057;47.830;19.046;2023-01-26T10:34:53;100691.66;;;2.85;100.00
46347;BME280;32057;47.830;19.046;2023-01-26T10:37:28;100686.50;;;2.85;100.00
46347;BME280;32057;47.830;19.046;2023-01-26T10:40:04;100686.06;;;2.92;100.00
46347;BME280;32057;47.830;19.046;2023-01-26T10:42:34;100683.31;;;2.89;100.00
46347;BME280;32057;47.830;19.046;2023-01-26T10:45:00;100676.66;;;2.93;100.00
46347;BME280;32057;47.830;19.046;2023-01-26T10:47:26;100675.31;;;2.99;100.00
46347;BME280;32057;47.830;19.046;2023-01-26T10:49:51;100674.09;;;3.08;100.00
46347;BME280;32057;47.830;19.046;2023-01-26T10:52:18;100664.78;;;3.10;100.00
46347;BME280;32057;47.830;19.046;2023-01-26T10:54:44;100663.19;;;3.12;100.00
46347;BME280;32057;47.830;19.046;2023-01-26T10:57:14;100662.34;;;3.13;100.00
46347;BME280;32057;47.830;19.046;2023-01-26T10:59:41;100662.22;;;3.10;100.00
46347;BME280;32057;47.830;19.046;2023-01-26T11:04:38;100663.19;;;3.12;100.00
46347;BME280;32057;47.830;19.046;2023-01-26T11:07:18;100659.97;;;3.16;100.00
46347;BME280;32057;47.830;19.046;2023-01-26T11:09:47;100654.50;;;3.10;100.00
46347;BME280;32057;47.830;19.046;2023-01-26T11:12:19;100658.03;;;3.12;100.00
46347;BME280;32057;47.830;19.046;2023-01-26T11:15:01;100646.38;;;3.18;100.00
46347;BME280;32057;47.830;19.046;2023-01-26T11:17:37;100649.94;;;3.21;100.00
46347;BME280;32057;47.830;19.046;2023-01-26T11:22:57;100638.91;;;3.23;100.00
46347;BME280;32057;47.830;19.046;2023-01-26T11:27:52;100635.56;;;3.24;99.76
46347;BME280;32057;47.830;19.046;2023-01-26T11:38:14;100620.28;;;3.27;96.78
46347;BME280;32057;47.830;19.046;2023-01-26T11:43:15;100602.16;;;3.41;98.40
46347;BME280;32057;47.830;19.046;2023-01-26T11:51:06;100593.78;;;3.45;95.91
46347;BME280;32057;47.830;19.046;2023-01-26T11:54:02;100594.66;;;3.45;91.89
46347;BME280;32057;47.830;19.046;2023-01-26T11:56:53;100593.06;;;3.47;95.74
46347;BME280;32057;47.830;19.046;2023-01-26T11:59:25;100587.03;;;3.47;93.58
46347;BME280;32057;47.830;19.046;2023-01-26T12:04:24;100579.00;;;3.41;90.40
46347;BME280;32057;47.830;19.046;2023-01-26T12:06:51;100571.44;;;3.44;93.96
46347;BME280;32057;47.830;19.046;2023-01-26T12:11:59;100568.47;;;3.36;92.61
46347;BME280;32057;47.830;19.046;2023-01-26T12:16:57;100557.78;;;3.28;88.24
46347;BME280;32057;47.830;19.046;2023-01-26T12:21:56;100556.94;;;3.29;91.92
46347;BME280;32057;47.830;19.046;2023-01-26T12:24:46;100548.28;;;3.27;91.82
46347;BME280;32057;47.830;19.046;2023-01-26T12:27:15;100556.94;;;3.29;88.61
46347;BME280;32057;47.830;19.046;2023-01-26T12:32:10;100542.75;;;3.36;91.09
46347;BME280;32057;47.830;19.046;2023-01-26T12:34:36;100543.06;;;3.42;92.06
46347;BME280;32057;47.830;19.046;2023-01-26T12:37:05;100540.41;;;3.41;92.36
46347;BME280;32057;47.830;19.046;2023-01-26T12:39:41;100531.72;;;3.38;88.05
46347;BME280;32057;47.830;19.046;2023-01-26T12:44:46;100538.78;;;3.43;89.01
46347;BME280;32057;47.830;19.046;2023-01-26T12:47:17;100539.44;;;3.38;86.06
46347;BME280;32057;47.830;19.046;2023-01-26T12:54:44;100536.00;;;3.38;89.87
46347;BME280;32057;47.830;19.046;2023-01-26T12:57:12;100539.44;;;3.38;90.34
46347;BME280;32057;47.830;19.046;2023-01-26T12:59:39;100545.22;;;3.34;88.76
46347;BME280;32057;47.830;19.046;2023-01-26T13:04:39;100546.84;;;3.32;90.50
46347;BME280;32057;47.830;19.046;2023-01-26T13:15:12;100534.72;;;3.30;88.58
46347;BME280;32057;47.830;19.046;2023-01-26T13:22:47;100525.94;;;3.26;89.54
46347;BME280;32057;47.830;19.046;2023-01-26T13:35:12;100516.84;;;3.33;91.23
46347;BME280;32057;47.830;19.046;2023-01-26T13:43:00;100519.75;;;3.23;86.55
46347;BME280;32057;47.830;19.046;2023-01-26T13:45:37;100512.13;;;3.24;89.41
46347;BME280;32057;47.830;19.046;2023-01-26T13:48:04;100511.38;;;3.27;90.71
46347;BME280;32057;47.830;19.046;2023-01-26T13:50:34;100512.25;;;3.27;91.04
46347;BME280;32057;47.830;19.046;2023-01-26T13:53:02;100511.31;;;3.25;91.46
46347;BME280;32057;47.830;19.046;2023-01-26T13:55:47;100518.00;;;3.22;86.22
46347;BME280;32057;47.830;19.046;2023-01-26T13:58:16;100514.50;;;3.21;92.75
46347;BME280;32057;47.830;19.046;2023-01-26T14:00:42;100512.84;;;3.22;89.93
46347;BME280;32057;47.830;19.046;2023-01-26T14:03:18;100511.06;;;3.21;90.75
46347;BME280;32057;47.830;19.046;2023-01-26T14:05:49;100512.03;;;3.23;91.23
46347;BME280;32057;47.830;19.046;2023-01-26T14:08:15;100516.94;;;3.18;87.74
46347;BME280;32057;47.830;19.046;2023-01-26T14:10:41;100521.91;;;3.15;86.61
46347;BME280;32057;47.830;19.046;2023-01-26T14:13:12;100522.78;;;3.15;87.47
46347;BME280;32057;47.830;19.046;2023-01-26T14:15:43;100527.59;;;3.09;88.27